createdAt,value
2019-03-21T00:00:26.353Z,28.10
2019-03-21T00:02:54.901Z,25.73
2019-03-21T00:05:24.725Z,28.43
2019-03-21T00:07:53.285Z,25.27
2019-03-21T00:10:30.787Z,30.27
2019-03-21T00:12:59.372Z,32.23
2019-03-21T00:15:37.261Z,23.47
2019-03-21T00:18:08.869Z,30.67
2019-03-21T00:20:37.415Z,26.80
2019-03-21T00:23:06.041Z,29.37
2019-03-21T00:25:34.693Z,29.27
2019-03-21T00:28:03.275Z,24.90
2019-03-21T00:30:31.815Z,26.23
2019-03-21T00:33:00.381Z,25.57
2019-03-21T00:35:29.132Z,24.97
2019-03-21T00:37:57.670Z,27.90
2019-03-21T00:40:34.802Z,32.10
2019-03-21T00:43:06.010Z,25.67
2019-03-21T00:45:34.566Z,28.33
2019-03-21T00:48:04.843Z,29.43
2019-03-21T00:50:33.394Z,25.80
2019-03-21T00:53:01.979Z,27.70
2019-03-21T00:55:38.963Z,26.73
2019-03-21T00:58:07.610Z,27.10
2019-03-21T01:00:44.942Z,24.70
2019-03-21T01:03:14.085Z,25.87
2019-03-21T01:05:42.988Z,24.90
2019-03-21T01:08:11.613Z,30.07
2019-03-21T01:10:40.203Z,28.80
2019-03-21T01:13:08.758Z,26.57
2019-03-21T01:15:37.316Z,28.17
2019-03-21T01:18:06.020Z,34.43
2019-03-21T01:20:34.674Z,31.47
2019-03-21T01:23:03.221Z,30.77
2019-03-21T01:25:46.518Z,29.40
2019-03-21T01:28:15.066Z,28.17
2019-03-21T01:30:43.608Z,30.43
2019-03-21T01:33:12.211Z,30.10
2019-03-21T01:35:41.514Z,27.67
2019-03-21T01:38:10.000Z,26.50
2019-03-21T01:40:44.867Z,28.77
2019-03-21T01:43:13.420Z,30.57
2019-03-21T01:45:41.970Z,28.70
2019-03-21T01:48:10.528Z,30.57
2019-03-21T01:50:40.555Z,30.40
2019-03-21T01:53:09.106Z,36.97
2019-03-21T01:55:37.656Z,29.63
2019-03-21T01:58:06.292Z,32.40
2019-03-21T02:00:43.383Z,32.47
2019-03-21T02:03:11.924Z,33.87
2019-03-21T02:05:40.488Z,28.27
2019-03-21T02:08:09.142Z,32.10
2019-03-21T02:10:37.700Z,31.57
2019-03-21T02:13:06.322Z,33.73
2019-03-21T02:15:34.890Z,36.43
2019-03-21T02:18:03.450Z,31.90
2019-03-21T02:20:32.129Z,35.00
2019-03-21T02:23:00.678Z,35.57
2019-03-21T02:25:42.378Z,32.70
2019-03-21T02:28:11.072Z,32.87
2019-03-21T02:30:58.194Z,35.87
2019-03-21T02:33:32.604Z,35.93
2019-03-21T02:36:02.955Z,35.80
2019-03-21T02:38:31.506Z,35.10
2019-03-21T02:41:03.131Z,35.83
2019-03-21T02:43:31.678Z,39.47
2019-03-21T02:46:00.266Z,38.17
2019-03-21T02:48:28.830Z,37.03
2019-03-21T02:50:57.385Z,35.07
2019-03-21T02:53:25.932Z,35.80
2019-03-21T02:55:54.527Z,36.93
2019-03-21T02:58:23.083Z,35.83
2019-03-21T03:00:51.634Z,35.70
2019-03-21T03:03:20.198Z,38.40
2019-03-21T03:05:48.759Z,33.87
2019-03-21T03:08:17.323Z,38.70
2019-03-21T03:10:54.681Z,36.07
2019-03-21T03:13:23.534Z,36.47
2019-03-21T03:15:52.099Z,40.83
2019-03-21T03:18:22.187Z,38.07
2019-03-21T03:20:50.758Z,36.97
2019-03-21T03:23:19.339Z,40.60
2019-03-21T03:25:50.967Z,38.50
2019-03-21T03:28:21.220Z,35.20
2019-03-21T03:30:51.939Z,35.53
2019-03-21T03:33:20.484Z,41.00
2019-03-21T03:35:49.051Z,36.93
2019-03-21T03:38:17.624Z,44.13
2019-03-21T03:41:04.655Z,45.17
2019-03-21T03:43:33.238Z,40.13
2019-03-21T03:46:01.867Z,38.33
2019-03-21T03:48:30.451Z,39.33
2019-03-21T03:50:58.974Z,39.30
2019-03-21T03:53:27.475Z,40.03
2019-03-21T03:55:56.070Z,42.43
2019-03-21T03:58:35.855Z,46.43
2019-03-21T04:01:04.783Z,41.60
2019-03-21T04:03:33.421Z,38.40
2019-03-21T04:06:02.099Z,42.50
2019-03-21T04:08:30.741Z,43.03
2019-03-21T04:10:59.414Z,41.47
2019-03-21T04:13:27.968Z,38.17
2019-03-21T04:15:56.545Z,41.00
2019-03-21T04:18:25.741Z,40.93
2019-03-21T04:21:12.675Z,42.77
2019-03-21T04:23:41.273Z,43.00
2019-03-21T04:26:22.242Z,42.90
2019-03-21T04:28:50.983Z,40.37
2019-03-21T04:31:19.522Z,39.93
2019-03-21T04:33:50.044Z,41.60
2019-03-21T04:36:18.661Z,48.37
2019-03-21T04:38:47.218Z,43.93
2019-03-21T04:41:15.794Z,41.83
2019-03-21T04:43:44.338Z,48.43
2019-03-21T04:46:12.929Z,48.30
2019-03-21T04:48:41.476Z,41.00
2019-03-21T04:51:10.114Z,46.33
2019-03-21T04:53:38.722Z,45.80
2019-03-21T04:56:07.341Z,45.47
2019-03-21T04:58:35.904Z,46.00
2019-03-21T05:01:04.789Z,50.10
2019-03-21T05:03:33.790Z,42.90
2019-03-21T05:06:02.354Z,44.53
2019-03-21T05:08:30.895Z,42.53
2019-03-21T05:10:59.460Z,37.33
2019-03-21T05:13:28.039Z,55.53
2019-03-21T05:16:54.446Z,44.27
2019-03-21T05:19:23.043Z,43.97
2019-03-21T05:21:51.597Z,42.63
2019-03-21T05:24:20.152Z,45.47
2019-03-21T05:26:48.738Z,45.83
2019-03-21T05:29:17.296Z,41.90
2019-03-21T05:31:45.855Z,48.37
2019-03-21T05:34:14.434Z,42.27
2019-03-21T05:36:42.984Z,47.40
2019-03-21T05:39:12.003Z,40.27
2019-03-21T05:41:40.599Z,45.53
2019-03-21T05:44:18.161Z,44.23
2019-03-21T05:46:46.711Z,44.77
2019-03-21T05:49:16.997Z,44.23
2019-03-21T05:51:45.543Z,44.63
2019-03-21T05:54:26.007Z,47.50
2019-03-21T05:56:54.609Z,43.60
2019-03-21T05:59:23.213Z,45.40
2019-03-21T06:01:51.735Z,46.80
2019-03-21T06:04:24.505Z,45.50
2019-03-21T06:07:20.015Z,46.77
2019-03-21T06:09:50.151Z,45.73
2019-03-21T06:12:18.699Z,46.63
2019-03-21T06:14:53.240Z,42.13
2019-03-21T06:17:21.843Z,47.10
2019-03-21T06:20:20.485Z,43.67
2019-03-21T06:23:09.983Z,44.43
2019-03-21T06:25:53.611Z,46.37
2019-03-21T06:28:22.219Z,48.00
2019-03-21T06:31:10.105Z,44.40
2019-03-21T06:33:38.662Z,43.30
2019-03-21T06:36:17.958Z,51.00
2019-03-21T06:38:38.498Z,52.83
2019-03-21T06:41:09.786Z,47.23
2019-03-21T06:43:42.342Z,44.97
2019-03-21T06:46:14.203Z,47.13
2019-03-21T06:48:46.143Z,46.73
2019-03-21T06:51:14.749Z,51.13
2019-03-21T06:53:43.315Z,46.10
2019-03-21T07:01:44.499Z,52.77
2019-03-21T07:04:15.127Z,45.95
2019-03-21T07:06:45.103Z,45.23
2019-03-21T07:09:13.699Z,50.03
2019-03-21T07:11:42.372Z,46.47
2019-03-21T07:14:10.996Z,46.10
2019-03-21T07:16:39.577Z,49.90
2019-03-21T07:19:08.274Z,53.20
2019-03-21T07:21:36.903Z,51.70
2019-03-21T07:24:05.631Z,48.83
2019-03-21T07:26:34.167Z,47.00
2019-03-21T07:29:02.727Z,52.90
2019-03-21T07:31:31.330Z,49.57
2019-03-21T07:33:59.937Z,52.03
2019-03-21T07:36:28.570Z,52.83
2019-03-21T07:38:57.169Z,54.07
2019-03-21T07:41:25.738Z,48.90
2019-03-21T07:43:54.434Z,48.23
2019-03-21T07:46:23.056Z,48.23
2019-03-21T07:48:51.599Z,45.80
2019-03-21T07:51:20.160Z,49.10
2019-03-21T07:53:48.728Z,46.47
2019-03-21T07:56:17.285Z,49.13
2019-03-21T07:58:45.862Z,51.17
2019-03-21T08:01:14.414Z,44.23
2019-03-21T08:03:42.980Z,48.17
2019-03-21T08:06:11.587Z,54.37
2019-03-21T08:08:40.215Z,50.07
2019-03-21T08:11:08.791Z,50.20
2019-03-21T08:13:37.475Z,46.03
2019-03-21T08:16:06.079Z,44.63
2019-03-21T08:18:34.639Z,42.10
2019-03-21T08:21:03.210Z,39.77
2019-03-21T08:23:31.766Z,44.80
2019-03-21T08:26:00.346Z,40.70
2019-03-21T08:28:28.932Z,39.27
2019-03-21T08:31:09.743Z,42.37
2019-03-21T08:33:38.307Z,39.80
2019-03-21T08:36:07.096Z,41.90
2019-03-21T08:38:35.656Z,38.30
2019-03-21T08:41:04.411Z,35.10
2019-03-21T08:43:33.016Z,33.43
2019-03-21T08:46:01.558Z,33.13
2019-03-21T08:48:30.142Z,32.97
2019-03-21T08:51:07.833Z,38.20
2019-03-21T08:53:28.951Z,36.53
2019-03-21T08:55:57.546Z,30.50
2019-03-21T08:58:26.120Z,34.53
2019-03-21T09:00:54.730Z,34.30
2019-03-21T09:03:23.359Z,34.60
2019-03-21T09:05:51.939Z,35.67
2019-03-21T09:08:20.526Z,31.93
2019-03-21T09:10:49.204Z,33.33
2019-03-21T09:13:17.832Z,32.43
2019-03-21T09:15:46.393Z,32.80
2019-03-21T09:18:15.006Z,29.50
2019-03-21T09:20:43.578Z,29.30
2019-03-21T09:23:12.134Z,31.27
2019-03-21T09:25:40.854Z,32.10
2019-03-21T09:28:09.422Z,34.37
2019-03-21T09:30:37.990Z,34.07
2019-03-21T09:33:07.875Z,32.20
2019-03-21T09:35:36.469Z,30.73
2019-03-21T09:38:05.105Z,30.07
2019-03-21T09:40:33.814Z,28.27
2019-03-21T09:43:03.333Z,28.17
2019-03-21T09:45:32.126Z,32.13
2019-03-21T09:48:00.681Z,31.97
2019-03-21T09:50:32.513Z,29.60
2019-03-21T09:53:01.085Z,27.03
2019-03-21T09:55:29.790Z,24.63
2019-03-21T09:57:58.359Z,22.93
2019-03-21T10:00:31.913Z,17.83
2019-03-21T10:03:01.266Z,21.70
2019-03-21T10:05:30.024Z,23.67
2019-03-21T10:07:59.663Z,21.73
2019-03-21T10:10:30.132Z,24.97
2019-03-21T10:12:58.779Z,21.67
2019-03-21T10:15:27.570Z,22.70
2019-03-21T10:17:56.536Z,25.60
2019-03-21T10:20:25.176Z,26.77
2019-03-21T10:22:55.041Z,24.00
2019-03-21T10:25:26.289Z,21.03
2019-03-21T10:27:53.910Z,26.00
2019-03-21T10:30:39.934Z,23.53
2019-03-21T10:33:12.998Z,23.93
2019-03-21T10:35:41.622Z,26.27
2019-03-21T10:38:11.552Z,23.03
2019-03-21T10:40:41.816Z,23.40
2019-03-21T10:43:10.785Z,25.63
2019-03-21T10:45:39.626Z,22.33
2019-03-21T10:48:08.371Z,22.37
2019-03-21T10:50:38.934Z,19.33
2019-03-21T10:53:07.859Z,19.20
2019-03-21T10:55:36.715Z,21.33
2019-03-21T10:58:06.177Z,21.37
2019-03-21T11:00:35.368Z,17.60
2019-03-21T11:03:04.287Z,23.03
2019-03-21T11:05:32.849Z,21.60
2019-03-21T11:08:01.457Z,21.53
2019-03-21T11:10:30.049Z,19.27
2019-03-21T11:12:58.592Z,19.60
2019-03-21T11:15:27.316Z,22.47
2019-03-21T11:17:56.081Z,24.07
2019-03-21T11:20:32.096Z,19.23
2019-03-21T11:23:01.281Z,23.00
2019-03-21T11:25:30.408Z,22.27
2019-03-21T11:27:58.995Z,20.77
2019-03-21T11:30:39.036Z,22.83
2019-03-21T11:33:07.880Z,18.93
2019-03-21T11:35:36.506Z,18.53
2019-03-21T11:38:05.901Z,19.30
2019-03-21T11:40:34.834Z,16.33
2019-03-21T11:43:05.093Z,23.60
2019-03-21T11:45:33.763Z,19.07
2019-03-21T11:48:02.435Z,16.93
2019-03-21T11:50:30.971Z,19.10
2019-03-21T11:52:59.552Z,17.73
2019-03-21T11:55:28.129Z,20.27
2019-03-21T11:57:56.773Z,18.77
2019-03-21T12:00:25.399Z,21.10
2019-03-21T12:02:54.535Z,23.00
2019-03-21T12:05:23.080Z,24.87
2019-03-21T12:07:52.399Z,27.13
2019-03-21T12:10:21.066Z,23.90
2019-03-21T12:12:49.698Z,24.73
2019-03-21T12:15:18.337Z,23.40
2019-03-21T12:17:46.909Z,20.90
2019-03-21T12:20:29.878Z,22.07
2019-03-21T12:22:58.761Z,23.77
2019-03-21T12:25:27.436Z,19.70
2019-03-21T12:27:56.101Z,20.70
2019-03-21T12:30:33.094Z,20.30
2019-03-21T12:33:01.642Z,18.87
2019-03-21T12:35:30.206Z,19.90
2019-03-21T12:37:58.774Z,18.10
2019-03-21T12:40:27.903Z,20.53
2019-03-21T12:42:56.463Z,20.17
2019-03-21T12:45:46.482Z,30.30
2019-03-21T12:48:15.039Z,22.17
2019-03-21T12:50:43.605Z,21.93
2019-03-21T12:53:12.239Z,21.87
2019-03-21T12:55:40.829Z,20.13
2019-03-21T12:58:09.435Z,16.07
2019-03-21T13:00:39.560Z,15.93
2019-03-21T13:03:08.361Z,14.50
2019-03-21T13:05:37.052Z,15.10
2019-03-21T13:08:05.904Z,16.50
2019-03-21T13:10:34.455Z,15.80
2019-03-21T13:13:03.494Z,17.90
2019-03-21T13:15:32.111Z,15.73
2019-03-21T13:18:00.895Z,14.87
2019-03-21T13:20:29.466Z,14.27
2019-03-21T13:22:58.063Z,15.30
2019-03-21T13:25:26.623Z,14.33
2019-03-21T13:27:55.305Z,16.93
2019-03-21T13:30:23.959Z,16.17
2019-03-21T13:32:52.520Z,14.87
2019-03-21T13:35:32.078Z,17.73
2019-03-21T13:37:53.804Z,15.70
2019-03-21T13:40:21.529Z,17.93
2019-03-21T13:42:50.117Z,14.23
2019-03-21T13:45:18.779Z,13.63
2019-03-21T13:47:47.430Z,17.87
2019-03-21T13:50:16.084Z,13.53
2019-03-21T13:52:44.656Z,13.87
2019-03-21T13:55:13.911Z,15.57
2019-03-21T13:57:42.467Z,18.60
2019-03-21T14:00:19.653Z,16.77
2019-03-21T14:02:48.201Z,17.70
2019-03-21T14:05:16.904Z,18.47
2019-03-21T14:07:45.473Z,22.00
2019-03-21T14:10:14.301Z,17.30
2019-03-21T14:12:42.963Z,15.83
2019-03-21T14:15:14.066Z,20.53
2019-03-21T14:17:42.632Z,14.23
2019-03-21T14:20:12.863Z,17.37
2019-03-21T14:22:41.497Z,18.00
2019-03-21T14:25:10.229Z,18.10
2019-03-21T14:27:38.819Z,18.20
2019-03-21T14:30:31.732Z,16.17
2019-03-21T14:33:00.341Z,17.03
2019-03-21T14:35:28.945Z,16.77
2019-03-21T14:37:57.501Z,15.83
2019-03-21T14:40:26.179Z,14.60
2019-03-21T14:42:54.747Z,17.70
2019-03-21T14:45:23.313Z,12.43
2019-03-21T14:47:51.996Z,13.77
2019-03-21T14:50:20.557Z,15.27
2019-03-21T14:52:49.183Z,17.50
2019-03-21T14:55:17.762Z,16.97
2019-03-21T14:57:46.367Z,14.53
2019-03-21T15:00:17.840Z,15.33
2019-03-21T15:02:46.578Z,20.40
2019-03-21T15:05:15.791Z,14.53
2019-03-21T15:07:44.376Z,14.83
2019-03-21T15:10:20.519Z,14.10
2019-03-21T15:12:49.067Z,17.70
2019-03-21T15:15:17.729Z,16.67
2019-03-21T15:17:46.272Z,17.92
2019-03-21T15:20:16.471Z,18.97
2019-03-21T15:22:46.676Z,21.73
2019-03-21T15:25:15.416Z,22.13
2019-03-21T15:27:44.042Z,20.67
2019-03-21T15:30:15.775Z,19.63
2019-03-21T15:32:44.620Z,15.90
2019-03-21T15:35:15.053Z,16.80
2019-03-21T15:37:43.831Z,17.60
2019-03-21T15:40:14.851Z,14.00
2019-03-21T15:42:43.463Z,18.90
2019-03-21T15:45:22.718Z,15.47
2019-03-21T15:47:47.700Z,16.10
2019-03-21T15:50:38.473Z,15.60
2019-03-21T15:53:07.452Z,16.43
2019-03-21T15:55:36.093Z,19.90
2019-03-21T15:58:04.882Z,21.00
2019-03-21T16:00:41.486Z,19.13
2019-03-21T16:03:11.705Z,17.40
2019-03-21T16:05:41.127Z,18.00
2019-03-21T16:08:09.801Z,16.37
2019-03-21T16:10:38.438Z,19.63
2019-03-21T16:13:07.385Z,22.20
2019-03-21T16:15:36.013Z,21.17
2019-03-21T16:18:05.220Z,16.13
2019-03-21T16:20:33.968Z,18.13
2019-03-21T16:23:02.601Z,25.10
2019-03-21T16:25:31.265Z,19.03
2019-03-21T16:27:59.888Z,22.00
2019-03-21T16:30:28.466Z,22.87
2019-03-21T16:32:57.966Z,20.13
2019-03-21T16:35:26.534Z,22.83
2019-03-21T16:37:55.135Z,27.43
2019-03-21T16:40:23.743Z,27.73
2019-03-21T16:42:53.923Z,25.47
2019-03-21T16:45:22.534Z,28.40
2019-03-21T16:47:51.138Z,24.90
2019-03-21T16:50:19.846Z,31.40
2019-03-21T16:52:48.450Z,28.53
2019-03-21T16:55:17.010Z,33.20
2019-03-21T16:57:45.661Z,38.87
2019-03-21T17:00:19.348Z,27.43
2019-03-21T17:02:48.187Z,32.10
2019-03-21T17:05:16.755Z,32.67
2019-03-21T17:07:45.345Z,30.93
2019-03-21T17:10:15.381Z,35.90
2019-03-21T17:12:43.910Z,31.03
2019-03-21T17:15:13.312Z,41.23
2019-03-21T17:17:41.955Z,35.73
2019-03-21T17:20:12.582Z,35.90
2019-03-21T17:22:41.184Z,30.70
2019-03-21T17:25:10.405Z,34.13
2019-03-21T17:27:39.036Z,34.80
2019-03-21T17:30:10.259Z,33.83
2019-03-21T17:32:38.816Z,36.77
2019-03-21T17:35:08.061Z,34.80
2019-03-21T17:37:36.631Z,33.83
2019-03-21T17:40:07.619Z,34.37
2019-03-21T17:42:36.173Z,36.37
2019-03-21T17:45:10.591Z,40.23
2019-03-21T17:47:39.227Z,33.73
2019-03-21T17:50:09.851Z,37.77
2019-03-21T17:52:38.425Z,36.53
2019-03-21T17:55:08.183Z,35.63
2019-03-21T17:57:36.867Z,39.57
2019-03-21T18:00:11.427Z,41.53
2019-03-21T18:02:41.680Z,37.00
2019-03-21T18:05:10.451Z,38.57
2019-03-21T18:07:39.182Z,40.77
2019-03-21T18:10:16.586Z,40.00
2019-03-21T18:12:45.146Z,43.33
2019-03-21T18:15:13.892Z,39.37
2019-03-21T18:17:42.477Z,38.27
2019-03-21T18:20:11.039Z,43.77
2019-03-21T18:22:39.705Z,41.77
2019-03-21T18:25:08.441Z,40.80
2019-03-21T18:27:36.995Z,46.37
2019-03-21T18:30:07.871Z,46.73
2019-03-21T18:32:36.431Z,47.30
2019-03-21T18:35:06.242Z,44.43
2019-03-21T18:37:34.912Z,46.23
2019-03-21T18:40:04.668Z,47.63
2019-03-21T18:42:33.252Z,50.77
2019-03-21T18:45:02.047Z,49.97
2019-03-21T18:47:30.768Z,56.70
2019-03-21T18:49:59.314Z,52.10
2019-03-21T18:52:27.916Z,52.17
2019-03-21T18:55:05.616Z,50.80
2019-03-21T18:57:26.758Z,56.77
2019-03-21T18:59:55.363Z,52.93
2019-03-21T19:02:23.925Z,52.70
2019-03-21T19:04:52.502Z,52.53
2019-03-21T19:07:21.260Z,52.17
2019-03-21T19:09:49.832Z,49.97
2019-03-21T19:12:18.390Z,51.40
2019-03-21T19:14:47.077Z,52.67
2019-03-21T19:17:15.645Z,51.90
2019-03-21T19:19:44.220Z,54.77
2019-03-21T19:22:12.827Z,50.83
2019-03-21T19:24:41.381Z,51.87
2019-03-21T19:27:09.948Z,51.20
2019-03-21T19:29:38.628Z,52.13
2019-03-21T19:32:07.211Z,56.40
2019-03-21T19:34:35.761Z,53.60
2019-03-21T19:37:04.439Z,51.43
2019-03-21T19:39:32.992Z,53.77
2019-03-21T19:42:01.575Z,58.30
2019-03-21T19:44:30.145Z,51.80
2019-03-21T19:47:01.282Z,56.33
2019-03-21T19:49:29.023Z,54.10
2019-03-21T19:51:57.600Z,51.57
2019-03-21T19:54:26.160Z,54.93
2019-03-21T19:56:54.743Z,55.47
2019-03-21T19:59:23.312Z,55.27
2019-03-21T20:01:51.878Z,55.63
2019-03-21T20:04:20.451Z,54.40
2019-03-21T20:06:49.039Z,60.20
2019-03-21T20:09:17.751Z,57.77
2019-03-21T20:11:46.366Z,59.40
2019-03-21T20:14:14.999Z,56.20
2019-03-21T20:16:43.506Z,56.17
2019-03-21T20:19:12.243Z,60.13
2019-03-21T20:21:47.909Z,59.97
2019-03-21T20:24:11.121Z,57.17
2019-03-21T20:26:39.683Z,55.20
2019-03-21T20:29:08.289Z,59.53
2019-03-21T20:31:36.859Z,55.83
2019-03-21T20:34:05.444Z,60.67
2019-03-21T20:36:34.045Z,55.40
2019-03-21T20:39:02.628Z,61.23
2019-03-21T20:41:31.211Z,61.13
2019-03-21T20:44:00.032Z,62.70
2019-03-21T20:46:28.643Z,60.73
2019-03-21T20:48:56.231Z,60.43
2019-03-21T20:51:24.843Z,60.20
2019-03-21T20:53:53.427Z,60.17
2019-03-21T20:56:21.992Z,59.33
2019-03-21T20:58:50.679Z,62.97
2019-03-21T21:01:19.392Z,58.10
2019-03-21T21:03:47.956Z,61.10
2019-03-21T21:06:16.563Z,58.60
2019-03-21T21:08:45.163Z,63.63
2019-03-21T21:11:13.744Z,57.83
2019-03-21T21:13:43.686Z,63.00
2019-03-21T21:16:12.240Z,63.33
2019-03-21T21:18:40.848Z,59.40
2019-03-21T21:21:09.497Z,61.87
2019-03-21T21:23:38.060Z,62.27
2019-03-21T21:26:06.907Z,62.07
2019-03-21T21:28:35.552Z,57.07
2019-03-21T21:31:04.210Z,59.10
2019-03-21T21:33:32.777Z,55.90
2019-03-21T21:36:01.411Z,60.60
2019-03-21T21:38:30.000Z,61.37
2019-03-21T21:40:58.713Z,60.23
2019-03-21T21:43:27.293Z,62.87
2019-03-21T21:45:55.850Z,61.33
2019-03-21T21:48:24.440Z,63.10
2019-03-21T21:50:53.077Z,59.53
2019-03-21T21:53:21.725Z,58.80
2019-03-21T21:55:50.303Z,60.93
2019-03-21T21:58:21.931Z,63.20
2019-03-21T22:00:50.517Z,61.43
2019-03-21T22:03:19.084Z,62.83
2019-03-21T22:05:47.654Z,63.33
2019-03-21T22:08:16.223Z,60.30
2019-03-21T22:10:44.820Z,57.20
2019-03-21T22:13:13.419Z,60.27
2019-03-21T22:15:41.987Z,59.13
2019-03-21T22:18:10.659Z,58.20
2019-03-21T22:20:39.778Z,64.03
2019-03-21T22:23:08.341Z,59.67
2019-03-21T22:25:36.943Z,58.40
2019-03-21T22:28:05.503Z,57.73
2019-03-21T22:30:35.136Z,55.57
2019-03-21T22:33:03.721Z,56.70
2019-03-21T22:35:32.279Z,52.97
2019-03-21T22:38:00.848Z,58.97
2019-03-21T22:40:29.419Z,54.17
2019-03-21T22:42:57.993Z,60.30
2019-03-21T22:45:26.547Z,61.07
2019-03-21T22:47:55.147Z,54.87
2019-03-21T22:50:24.864Z,56.70
2019-03-21T22:52:54.321Z,56.43
2019-03-21T22:55:22.902Z,57.53
2019-03-21T22:57:51.460Z,59.40
2019-03-21T23:00:23.239Z,59.90
2019-03-21T23:02:51.881Z,55.70
2019-03-21T23:05:20.703Z,57.27
2019-03-21T23:07:49.310Z,62.77
2019-03-21T23:10:18.022Z,60.03
2019-03-21T23:12:47.785Z,57.20
2019-03-21T23:15:16.551Z,54.77
2019-03-21T23:17:45.106Z,58.80
2019-03-21T23:20:16.498Z,59.67
2019-03-21T23:22:45.213Z,61.07
2019-03-21T23:25:16.623Z,62.30
2019-03-21T23:27:45.134Z,62.63
2019-03-21T23:30:18.409Z,60.70
2019-03-21T23:32:47.247Z,67.23
2019-03-21T23:35:16.147Z,62.87
2019-03-21T23:37:44.909Z,65.03
2019-03-21T23:40:15.091Z,62.50
2019-03-21T23:42:43.953Z,68.00
2019-03-21T23:45:13.551Z,59.47
2019-03-21T23:47:42.239Z,63.67
2019-03-21T23:50:12.851Z,64.17
2019-03-21T23:52:41.555Z,64.63
2019-03-21T23:55:10.766Z,59.10
2019-03-21T23:57:39.375Z,62.23
